Time;durP1;ratioP1;P1;durP2;ratioP2;P2;SDS_P1;SDS_P2;PMS_P1;PMS_P2;Temp;Humidity;BMP_temperature;BMP_pressure;BME280_temperature;BME280_humidity;BME280_pressure;Samples;Min_cycle;Max_cycle;Signal;HPM_P1;HPM_P2
2022/05/28 06:51:02;;;;;;;14.63;9.10;;;24.00;99.90;;;;;;6204992;23;20024;-73
2022/05/28 06:53:42;;;;;;;19.35;9.30;;;24.10;99.90;;;;;;6212519;23;20055;-73
2022/05/28 06:56:09;;;;;;;13.48;8.85;;;24.20;99.90;;;;;;6213235;23;20492;-73
2022/05/28 06:58:35;;;;;;;15.63;8.73;;;24.30;99.90;;;;;;6212967;23;20004;-73
2022/05/28 07:01:02;;;;;;;15.70;9.10;;;24.30;99.90;;;;;;6210724;23;19997;-72
2022/05/28 07:03:30;;;;;;;15.70;9.35;;;24.40;99.90;;;;;;6183331;23;20008;-72
2022/05/28 07:05:59;;;;;;;18.92;8.63;;;24.40;99.90;;;;;;6210447;23;20011;-72
2022/05/28 07:08:27;;;;;;;14.55;9.25;;;24.40;99.90;;;;;;6209880;23;20032;-72
2022/05/28 07:10:58;;;;;;;21.75;9.18;;;24.40;99.90;;;;;;6208408;23;20083;-72
2022/05/28 07:13:24;;;;;;;23.53;11.97;;;24.60;99.90;;;;;;6209558;23;20443;-72
2022/05/28 07:15:54;;;;;;;18.02;12.07;;;24.60;99.90;;;;;;6183195;23;20247;-72
2022/05/28 07:18:20;;;;;;;21.17;10.65;;;24.60;99.90;;;;;;6209479;23;20035;-72
2022/05/28 07:20:47;;;;;;;21.17;10.40;;;24.60;99.90;;;;;;6209394;23;19996;-72
2022/05/28 07:23:16;;;;;;;21.85;11.23;;;24.70;99.90;;;;;;6210524;23;20005;-72
2022/05/28 07:25:46;;;;;;;18.02;9.77;;;24.70;99.90;;;;;;6183464;23;20043;-72
2022/05/28 07:31:10;;;;;;;15.20;10.20;;;24.80;99.90;;;;;;6191328;23;20076;-74
2022/05/28 07:33:44;;;;;;;22.20;11.00;;;24.80;99.90;;;;;;6183431;23;20024;-74
2022/05/28 07:36:13;;;;;;;17.92;10.85;;;24.80;99.90;;;;;;6183321;23;20028;-74
2022/05/28 07:38:39;;;;;;;19.80;10.50;;;24.80;99.90;;;;;;6210236;23;20059;-74
2022/05/28 07:41:21;;;;;;;18.40;10.68;;;24.80;99.90;;;;;;6209865;23;20008;-74
2022/05/28 07:43:48;;;;;;;;;;;24.80;99.90;;;;;;6211211;23;20001;-74
2022/05/28 07:46:22;;;;;;;14.30;10.52;;;25.00;99.90;;;;;;6211021;23;20635;-74
2022/05/28 07:48:53;;;;;;;20.17;10.18;;;25.00;99.90;;;;;;6211715;23;20004;-74
2022/05/28 07:51:20;;;;;;;18.63;10.52;;;25.00;99.90;;;;;;6158527;23;20349;-74
2022/05/28 07:53:46;;;;;;;16.92;9.93;;;25.00;99.90;;;;;;6182480;23;20094;-74
2022/05/28 07:56:13;;;;;;;18.25;9.10;;;25.00;99.90;;;;;;6181291;23;20027;-74
2022/05/28 07:58:40;;;;;;;17.58;8.73;;;25.00;99.90;;;;;;6182290;23;19997;-74
2022/05/28 08:01:06;;;;;;;15.93;8.40;;;25.10;99.90;;;;;;6182192;23;20665;-74
2022/05/28 08:03:33;;;;;;;12.38;8.68;;;25.20;99.90;;;;;;6181770;23;20001;-74
2022/05/28 08:05:59;;;;;;;14.25;9.25;;;25.20;99.90;;;;;;6182477;23;20012;-74
2022/05/28 08:08:26;;;;;;;14.20;9.98;;;25.30;99.90;;;;;;6182172;23;20005;-74
2022/05/28 08:10:53;;;;;;;16.20;9.43;;;25.30;99.90;;;;;;6181603;23;20441;-74
2022/05/28 08:13:22;;;;;;;14.63;8.13;;;25.40;99.90;;;;;;6181165;23;20073;-74
2022/05/28 08:15:49;;;;;;;11.35;7.82;;;25.40;99.90;;;;;;6181482;23;20011;-72
2022/05/28 08:18:17;;;;;;;17.02;8.38;;;25.30;99.90;;;;;;6181556;23;20001;-73
2022/05/28 08:23:27;;;;;;;15.82;8.13;;;25.70;99.90;;;;;;6181387;23;20063;-72
2022/05/28 08:25:53;;;;;;;13.65;8.13;;;25.70;99.90;;;;;;6182216;23;20329;-72
2022/05/28 08:28:20;;;;;;;16.52;6.95;;;25.70;99.90;;;;;;6180712;23;19997;-72
2022/05/28 08:30:46;;;;;;;11.82;6.47;;;25.80;99.90;;;;;;6155495;23;20044;-72
2022/05/28 08:33:14;;;;;;;8.02;6.55;;;25.80;99.90;;;;;;6181350;23;20087;-72
2022/05/28 08:35:41;;;;;;;14.27;6.35;;;25.90;99.90;;;;;;6181173;23;20004;-72
2022/05/28 08:38:13;;;;;;;11.13;6.40;;;25.90;99.90;;;;;;6181749;23;20001;-72
2022/05/28 08:41:00;;;;;;;13.10;6.03;;;26.00;99.90;;;;;;6182224;23;20001;-72
2022/05/28 08:43:38;;;;;;;17.00;6.90;;;26.10;99.90;;;;;;6181449;23;20033;-72
2022/05/28 08:46:07;;;;;;;11.48;6.60;;;26.10;99.90;;;;;;6182060;23;20060;-72
2022/05/28 08:48:47;;;;;;;11.35;6.35;;;26.20;99.90;;;;;;6182085;23;20471;-71
2022/05/28 08:51:39;;;;;;;9.63;6.20;;;26.40;99.90;;;;;;6181693;23;20067;-72
2022/05/28 08:54:28;;;;;;;12.27;5.57;;;26.50;99.90;;;;;;6180799;23;20005;-72
2022/05/28 08:56:57;;;;;;;8.75;6.53;;;26.60;99.90;;;;;;6180705;23;19998;-73
2022/05/28 08:59:38;;;;;;;9.88;5.28;;;26.60;99.90;;;;;;6181208;23;20362;-72
2022/05/28 09:02:38;;;;;;;11.43;6.27;;;26.60;99.90;;;;;;6180993;23;20025;-72
2022/05/28 09:05:20;;;;;;;8.48;5.93;;;26.60;99.90;;;;;;6165765;23;20085;-73
2022/05/28 09:07:46;;;;;;;13.20;5.80;;;26.60;99.90;;;;;;6181424;23;20008;-73
2022/05/28 09:10:11;;;;;;;14.18;6.28;;;26.70;99.90;;;;;;6181688;23;20006;-72
2022/05/28 09:12:45;;;;;;;10.70;5.72;;;26.80;99.90;;;;;;6180798;23;20029;-72
2022/05/28 09:15:11;;;;;;;10.93;6.28;;;26.90;99.90;;;;;;6181179;23;20313;-73
2022/05/28 09:17:43;;;;;;;10.48;6.00;;;26.90;99.90;;;;;;6181196;23;20084;-72
2022/05/28 09:20:11;;;;;;;;;;;26.90;99.90;;;;;;6155487;23;20008;-73
2022/05/28 09:22:37;;;;;;;12.25;5.68;;;26.90;99.90;;;;;;6154166;23;19928;-74
2022/05/28 09:25:03;;;;;;;12.52;6.30;;;27.00;99.90;;;;;;6181625;23;20001;-72
2022/05/28 09:27:58;;;;;;;9.30;5.72;;;27.10;99.90;;;;;;6181218;23;20012;-73
2022/05/28 09:30:35;;;;;;;12.13;6.40;;;27.20;99.90;;;;;;6181609;23;20001;-73
2022/05/28 09:33:36;;;;;;;10.07;6.35;;;27.30;99.90;;;;;;6181306;23;20001;-73
2022/05/28 09:36:16;;;;;;;10.50;5.80;;;27.40;99.90;;;;;;6181751;23;20083;-73
2022/05/28 09:38:48;;;;;;;14.75;6.50;;;27.30;99.90;;;;;;6181833;23;20008;-73
2022/05/28 09:41:27;;;;;;;7.78;6.40;;;27.40;99.90;;;;;;6180932;23;20080;-73
2022/05/28 09:44:01;;;;;;;14.50;7.05;;;27.40;99.90;;;;;;6154539;23;20016;-72
2022/05/28 09:46:37;;;;;;;9.25;6.43;;;27.50;99.90;;;;;;6180760;23;20344;-73
2022/05/28 09:49:10;;;;;;;13.30;6.13;;;27.60;99.90;;;;;;6180819;23;20001;-73
2022/05/28 09:51:36;;;;;;;11.23;6.13;;;27.60;99.90;;;;;;6210322;23;20067;-72
2022/05/28 09:54:19;;;;;;;13.10;5.82;;;27.60;99.90;;;;;;6210724;23;20648;-72
2022/05/28 09:57:24;;;;;;;6.20;5.60;;;27.80;99.90;;;;;;6211271;23;20000;-73
2022/05/28 10:00:07;;;;;;;8.73;5.22;;;27.90;99.90;;;;;;6196801;23;20001;-72
2022/05/28 10:02:34;;;;;;;13.18;6.90;;;27.80;99.90;;;;;;6211432;23;19997;-73
2022/05/28 10:05:08;;;;;;;18.27;6.63;;;27.70;99.90;;;;;;6210104;23;20009;-74
2022/05/28 10:07:35;;;;;;;7.32;5.70;;;27.80;99.90;;;;;;6183938;23;20013;-73
2022/05/28 10:10:11;;;;;;;10.85;5.63;;;27.80;99.90;;;;;;6184510;23;20352;-74
2022/05/28 10:12:37;;;;;;;11.73;6.00;;;27.60;99.00;;;;;;6184392;23;20004;-74
2022/05/28 10:15:12;;;;;;;9.55;6.47;;;27.60;99.90;;;;;;6210497;23;20001;-73
2022/05/28 10:17:42;;;;;;;9.40;6.10;;;27.70;99.90;;;;;;6210356;23;20008;-74
2022/05/28 10:20:20;;;;;;;13.13;6.03;;;27.70;99.90;;;;;;6210619;23;20079;-74
2022/05/28 10:22:53;;;;;;;9.85;6.60;;;27.90;99.90;;;;;;6210709;23;20054;-73
2022/05/28 10:25:41;;;;;;;10.60;5.68;;;28.00;99.90;;;;;;6184153;23;20008;-73
2022/05/28 10:28:08;;;;;;;8.52;6.18;;;28.10;99.90;;;;;;6210416;23;20007;-72
2022/05/28 10:30:44;;;;;;;7.88;6.35;;;28.10;98.70;;;;;;6210485;23;20001;-72
2022/05/28 10:33:16;;;;;;;13.10;5.95;;;28.00;98.70;;;;;;6184406;23;20004;-73
2022/05/28 10:35:42;;;;;;;;;;;28.20;99.90;;;;;;6210864;23;20597;-73
2022/05/28 10:38:11;;;;;;;11.43;6.22;;;28.30;99.40;;;;;;6210123;23;19900;-73
2022/05/28 10:40:49;;;;;;;15.60;6.75;;;28.30;99.10;;;;;;6210866;23;20084;-72
2022/05/28 10:43:38;;;;;;;12.07;6.93;;;28.20;99.80;;;;;;6210949;23;20060;-72
2022/05/28 10:46:13;;;;;;;11.02;6.95;;;28.10;99.90;;;;;;6209982;23;20446;-72
2022/05/28 10:48:48;;;;;;;12.85;6.95;;;28.00;98.70;;;;;;6210881;23;20367;-72
2022/05/28 10:51:40;;;;;;;8.90;6.50;;;27.90;99.90;;;;;;6210816;23;20095;-73
2022/05/28 10:54:30;;;;;;;13.88;7.32;;;28.10;99.10;;;;;;6209975;23;20058;-75
2022/05/28 10:57:15;;;;;;;12.90;7.28;;;28.10;97.10;;;;;;6210438;23;20008;-74
2022/05/28 11:00:15;;;;;;;13.68;7.13;;;27.90;98.10;;;;;;6210899;23;19997;-74
2022/05/28 11:02:50;;;;;;;10.65;6.80;;;27.90;98.60;;;;;;6210546;23;20508;-74
2022/05/28 11:05:16;;;;;;;13.70;7.68;;;28.00;98.30;;;;;;6209867;23;20062;-74
2022/05/28 11:08:00;;;;;;;10.65;7.35;;;28.00;97.30;;;;;;6210103;23;20087;-73
2022/05/28 11:10:51;;;;;;;12.93;6.90;;;28.20;98.50;;;;;;6209988;23;20016;-74
2022/05/28 11:13:32;;;;;;;9.43;7.45;;;28.40;98.40;;;;;;6210537;23;20000;-73
2022/05/28 11:16:00;;;;;;;13.48;8.43;;;28.30;97.70;;;;;;6210332;23;20000;-73
2022/05/28 11:18:56;;;;;;;14.77;7.90;;;28.30;96.60;;;;;;6209869;23;20043;-72
2022/05/28 11:21:32;;;;;;;11.73;7.97;;;28.40;96.70;;;;;;6209879;23;19997;-74
2022/05/28 11:24:10;;;;;;;10.23;7.55;;;28.50;97.90;;;;;;6207931;23;20009;-73
2022/05/28 11:27:04;;;;;;;10.27;7.70;;;28.30;96.40;;;;;;6210095;23;20615;-72
2022/05/28 11:29:51;;;;;;;9.10;8.07;;;28.10;96.30;;;;;;6183412;23;20321;-72
2022/05/28 11:32:23;;;;;;;12.20;7.50;;;28.00;96.40;;;;;;6210760;23;20072;-73
2022/05/28 11:35:06;;;;;;;15.40;7.78;;;28.00;96.60;;;;;;6211358;23;20095;-72
2022/05/28 11:37:39;;;;;;;12.07;8.25;;;28.00;97.30;;;;;;6213535;23;19997;-72
2022/05/28 11:40:18;;;;;;;8.93;7.40;;;28.10;97.20;;;;;;6213259;23;20004;-72
2022/05/28 11:43:04;;;;;;;13.30;7.80;;;28.10;97.60;;;;;;6212709;23;20004;-73
2022/05/28 11:46:02;;;;;;;14.25;7.35;;;27.90;96.30;;;;;;6213059;23;19997;-72
2022/05/28 11:51:43;;;;;;;10.20;6.82;;;27.60;97.20;;;;;;6213627;23;20028;-73
2022/05/28 11:54:36;;;;;;;8.75;7.15;;;27.50;97.40;;;;;;6213522;23;20001;-72
2022/05/28 11:57:16;;;;;;;11.90;7.95;;;27.20;97.00;;;;;;6213666;23;20459;-72
2022/05/28 11:59:42;;;;;;;8.02;7.22;;;27.00;97.70;;;;;;6213557;23;20031;-72
2022/05/28 12:02:13;;;;;;;7.75;6.70;;;26.80;97.40;;;;;;6213318;23;20030;-72
2022/05/28 12:04:43;;;;;;;12.25;7.20;;;26.60;97.40;;;;;;6214069;23;20278;-72
2022/05/28 12:07:28;;;;;;;9.98;6.57;;;26.50;97.90;;;;;;6213939;23;20001;-72
2022/05/28 12:09:53;;;;;;;9.23;7.68;;;26.40;98.30;;;;;;6213649;23;20027;-72
2022/05/28 12:12:34;;;;;;;8.85;6.57;;;26.30;98.50;;;;;;6213886;23;20468;-72
2022/05/28 12:15:24;;;;;;;11.20;7.32;;;26.30;98.80;;;;;;6183839;23;20004;-76
2022/05/28 12:18:11;;;;;;;7.65;6.55;;;26.20;99.60;;;;;;6213730;23;20001;-76
2022/05/28 12:20:53;;;;;;;8.65;6.50;;;26.30;99.40;;;;;;6214546;23;20075;-76
2022/05/28 12:23:29;;;;;;;9.70;6.70;;;26.20;99.50;;;;;;6214671;23;20084;-76
2022/05/28 12:25:55;;;;;;;9.43;7.20;;;26.20;99.50;;;;;;6214879;23;20478;-77
2022/05/28 12:28:27;;;;;;;8.93;6.35;;;26.10;98.70;;;;;;6214454;23;20000;-78
2022/05/28 12:30:54;;;;;;;9.73;6.30;;;26.10;99.30;;;;;;6214423;23;20051;-78
2022/05/28 12:33:46;;;;;;;8.95;5.97;;;26.10;99.70;;;;;;6216369;23;20001;-78
2022/05/28 12:36:45;;;;;;;11.52;6.28;;;26.00;99.20;;;;;;6216124;23;20015;-78
2022/05/28 12:39:14;;;;;;;7.95;6.78;;;26.00;99.40;;;;;;6215822;23;20031;-76
2022/05/28 12:41:43;;;;;;;7.85;5.63;;;26.00;98.60;;;;;;6216648;23;20080;-76
2022/05/28 12:44:17;;;;;;;5.68;5.13;;;25.90;98.80;;;;;;6216109;23;20009;-76
2022/05/28 12:46:50;;;;;;;6.70;5.53;;;25.90;98.90;;;;;;6215987;23;20062;-76
2022/05/28 12:49:27;;;;;;;9.90;5.57;;;25.70;98.80;;;;;;6215658;23;20310;-76
2022/05/28 12:51:52;;;;;;;7.15;5.60;;;25.50;98.40;;;;;;6216444;23;20008;-76
2022/05/28 12:54:28;;;;;;;7.18;4.90;;;25.30;99.20;;;;;;6215717;23;20131;-76
2022/05/28 12:57:08;;;;;;;5.90;5.40;;;25.30;99.50;;;;;;6215839;23;20000;-76
2022/05/28 12:59:39;;;;;;;5.75;4.93;;;25.20;99.50;;;;;;6215525;23;20075;-76
2022/05/28 13:02:18;;;;;;;;;;;25.10;99.80;;;;;;6216023;23;20015;-76
2022/05/28 13:04:51;;;;;;;8.88;4.88;;;25.10;99.90;;;;;;6215198;23;20339;-76
2022/05/28 13:07:40;;;;;;;5.05;4.57;;;25.10;99.90;;;;;;6214884;23;20005;-76
2022/05/28 13:10:27;;;;;;;6.88;5.18;;;25.10;99.90;;;;;;6203345;23;20004;-77
2022/05/28 13:13:20;;;;;;;7.40;4.63;;;25.10;99.30;;;;;;6200625;23;20008;-77
2022/05/28 13:16:04;;;;;;;7.53;5.05;;;25.00;99.90;;;;;;6215495;23;20008;-77
2022/05/28 13:18:51;;;;;;;7.63;4.20;;;24.80;99.40;;;;;;6216098;23;20357;-77
2022/05/28 13:21:23;;;;;;;5.32;4.05;;;24.80;99.90;;;;;;6215650;23;20433;-77
2022/05/28 13:24:22;;;;;;;13.32;4.03;;;24.80;99.90;;;;;;6215303;23;20007;-79
2022/05/28 13:27:22;;;;;;;5.55;4.15;;;24.60;99.90;;;;;;6210772;23;20306;-80
2022/05/28 13:29:56;;;;;;;4.10;3.70;;;24.40;99.90;;;;;;6189185;23;20008;-77
2022/05/28 13:32:55;;;;;;;5.05;3.53;;;24.40;99.90;;;;;;6213720;23;20004;-76
2022/05/28 13:35:21;;;;;;;4.43;3.80;;;24.30;99.90;;;;;;6212501;23;20004;-77
2022/05/28 13:38:06;;;;;;;6.07;3.72;;;24.10;99.90;;;;;;6212381;23;20003;-77
2022/05/28 13:40:33;;;;;;;4.55;4.15;;;24.10;99.90;;;;;;6212480;23;20027;-76
2022/05/28 13:43:05;;;;;;;7.57;3.40;;;24.20;99.90;;;;;;6211716;23;20000;-76
2022/05/28 13:45:38;;;;;;;6.47;3.42;;;24.20;99.90;;;;;;6212559;23;20047;-76
2022/05/28 13:48:16;;;;;;;4.40;3.72;;;24.20;99.90;;;;;;6212978;23;20000;-77
2022/05/28 13:50:44;;;;;;;15.02;4.10;;;24.20;99.90;;;;;;6211467;23;20071;-77
2022/05/28 13:53:18;;;;;;;6.03;3.63;;;24.30;99.90;;;;;;6211377;23;20007;-78
2022/05/28 13:55:44;;;;;;;4.63;3.15;;;24.40;99.90;;;;;;6211881;23;20012;-77
2022/05/28 13:58:21;;;;;;;8.68;3.40;;;24.40;99.60;;;;;;6212064;23;20054;-79
2022/05/28 14:01:04;;;;;;;3.58;3.28;;;24.50;99.50;;;;;;6215204;23;20332;-78
2022/05/28 14:03:41;;;;;;;3.92;2.83;;;24.70;99.80;;;;;;6187593;23;20309;-79
2022/05/28 14:06:15;;;;;;;5.70;3.40;;;24.70;98.90;;;;;;6210177;23;20126;-75
2022/05/28 14:08:44;;;;;;;6.75;3.00;;;24.90;99.40;;;;;;6184862;23;20329;-79
2022/05/28 14:11:19;;;;;;;3.65;3.30;;;24.70;98.40;;;;;;6214854;23;20017;-74
2022/05/28 14:13:51;;;;;;;7.28;2.97;;;24.80;98.80;;;;;;6213063;23;20071;-74
2022/05/28 14:16:26;;;;;;;4.97;1.80;;;24.80;98.90;;;;;;6212488;23;20001;-74
2022/05/28 14:18:56;;;;;;;4.15;2.80;;;24.80;97.90;;;;;;6213180;23;20075;-74
2022/05/28 14:21:35;;;;;;;2.63;2.42;;;24.80;98.00;;;;;;6213033;23;20004;-74
2022/05/28 14:24:20;;;;;;;6.05;2.53;;;24.60;97.20;;;;;;6213508;23;20003;-75
2022/05/28 14:26:52;;;;;;;5.93;2.25;;;24.50;97.30;;;;;;6186838;23;20009;-74
2022/05/28 14:29:20;;;;;;;5.38;2.08;;;24.40;97.50;;;;;;6187705;23;20028;-74
2022/05/28 14:31:47;;;;;;;5.30;2.22;;;24.40;96.90;;;;;;6214933;23;20007;-74
2022/05/28 14:34:16;;;;;;;3.13;2.22;;;24.40;97.20;;;;;;6187354;23;20359;-74
2022/05/28 14:36:53;;;;;;;4.28;2.10;;;24.40;96.80;;;;;;6213731;23;20028;-74
2022/05/28 14:39:20;;;;;;;3.83;2.30;;;24.40;97.40;;;;;;6186783;23;20436;-74
2022/05/28 14:42:14;;;;;;;6.55;2.22;;;24.40;96.60;;;;;;6214612;23;20001;-74
2022/05/28 14:44:40;;;;;;;2.33;2.10;;;24.30;95.70;;;;;;6208216;23;20490;-74
2022/05/28 14:47:33;;;;;;;7.18;2.35;;;24.40;96.40;;;;;;6214239;23;19993;-74
2022/05/28 14:50:03;;;;;;;4.10;2.13;;;24.40;95.80;;;;;;6208331;23;20043;-74
2022/05/28 14:52:33;;;;;;;3.90;3.38;;;24.40;97.00;;;;;;6213466;23;20116;-74
2022/05/28 14:55:00;;;;;;;8.52;2.47;;;24.30;97.70;;;;;;6212534;23;20000;-72
2022/05/28 14:57:29;;;;;;;4.78;2.42;;;24.20;98.40;;;;;;6214046;23;20007;-72
2022/05/28 14:59:57;;;;;;;4.10;2.75;;;23.90;98.00;;;;;;6212630;23;20001;-72
2022/05/28 15:02:26;;;;;;;5.90;2.33;;;23.80;99.50;;;;;;6213431;23;20008;-72
2022/05/28 15:05:08;;;;;;;3.15;2.50;;;23.60;99.90;;;;;;6214154;23;20009;-72
2022/05/28 15:07:34;;;;;;;5.77;2.73;;;23.50;99.90;;;;;;6213624;23;20328;-74
2022/05/28 15:10:00;;;;;;;2.30;2.10;;;23.50;99.90;;;;;;6214361;23;20054;-74
2022/05/28 15:12:34;;;;;;;3.45;2.47;;;23.50;99.60;;;;;;6213565;23;20005;-74
2022/05/28 15:15:04;;;;;;;3.35;2.70;;;23.50;99.90;;;;;;6214047;23;20540;-75
2022/05/28 15:17:30;;;;;;;4.25;2.42;;;23.40;99.60;;;;;;6212627;23;20317;-74
2022/05/28 15:19:56;;;;;;;3.03;2.35;;;23.30;99.00;;;;;;6212854;23;20031;-74
2022/05/28 15:22:29;;;;;;;4.93;2.42;;;23.30;99.10;;;;;;6213485;23;20429;-75
2022/05/28 15:24:56;;;;;;;6.50;2.60;;;23.30;99.40;;;;;;6213398;23;20031;-75
2022/05/28 15:27:22;;;;;;;4.30;2.40;;;23.20;99.30;;;;;;6214249;23;20084;-74
2022/05/28 15:29:52;;;;;;;4.25;2.83;;;23.20;98.90;;;;;;6214228;23;20062;-74
2022/05/28 15:32:21;;;;;;;7.00;2.45;;;23.20;99.50;;;;;;6214292;23;20004;-74
2022/05/28 15:34:53;;;;;;;5.57;2.38;;;23.20;99.90;;;;;;6213904;23;20009;-74
2022/05/28 15:40:04;;;;;;;4.32;3.35;;;23.10;99.90;;;;;;6214353;23;20451;-74
2022/05/28 15:42:43;;;;;;;3.72;2.95;;;23.00;99.90;;;;;;6213611;23;19996;-74
2022/05/28 15:45:16;;;;;;;3.40;2.92;;;22.90;99.90;;;;;;6214872;23;20011;-74
2022/05/28 15:47:42;;;;;;;3.38;2.70;;;22.90;99.90;;;;;;6188257;23;20340;-74
2022/05/28 15:50:10;;;;;;;2.85;2.58;;;22.80;99.90;;;;;;6187661;23;20452;-74
2022/05/28 15:52:36;;;;;;;7.03;2.80;;;22.60;99.90;;;;;;6214704;23;20618;-75
2022/05/28 15:55:02;;;;;;;3.80;3.25;;;22.60;99.90;;;;;;6214248;23;20717;-74
2022/05/28 15:57:33;;;;;;;5.63;3.58;;;22.40;99.90;;;;;;6214550;23;20031;-74
2022/05/28 15:59:59;;;;;;;3.28;2.92;;;22.50;99.90;;;;;;6188047;23;20001;-74
2022/05/28 16:02:25;;;;;;;5.13;3.45;;;22.50;99.90;;;;;;6213295;23;20067;-74
2022/05/28 16:04:51;;;;;;;3.50;2.60;;;22.50;99.90;;;;;;6213876;23;20000;-75
2022/05/28 16:07:20;;;;;;;6.97;3.05;;;22.40;99.90;;;;;;6188393;23;20026;-74
2022/05/28 16:09:46;;;;;;;4.88;2.95;;;22.50;99.90;;;;;;6215828;23;20016;-74
2022/05/28 16:12:11;;;;;;;3.50;2.95;;;22.40;99.90;;;;;;6215782;23;20055;-74
2022/05/28 16:14:39;;;;;;;6.50;2.55;;;22.40;99.90;;;;;;6215727;23;20450;-74
2022/05/28 16:17:06;;;;;;;3.97;3.03;;;22.30;99.90;;;;;;6215614;23;20000;-74
2022/05/28 16:19:33;;;;;;;5.95;2.83;;;22.30;99.90;;;;;;6215751;23;20020;-74
2022/05/28 16:21:58;;;;;;;4.90;2.95;;;22.20;99.90;;;;;;6215651;23;20572;-74
2022/05/28 16:24:25;;;;;;;5.38;3.50;;;22.20;99.90;;;;;;6215936;23;20008;-75
2022/05/28 16:26:51;;;;;;;5.53;2.85;;;22.10;99.90;;;;;;6215614;23;20035;-74
2022/05/28 16:29:19;;;;;;;7.57;3.38;;;22.00;99.90;;;;;;6215441;23;20373;-74
2022/05/28 16:31:45;;;;;;;5.28;2.97;;;21.80;99.90;;;;;;6215084;23;20005;-74
2022/05/28 16:34:14;;;;;;;6.50;3.15;;;21.70;99.90;;;;;;6186712;23;20119;-74
2022/05/28 16:36:41;;;;;;;3.65;3.10;;;21.70;99.90;;;;;;6215126;23;20003;-80
2022/05/28 16:39:08;;;;;;;6.05;3.30;;;21.50;99.90;;;;;;6189442;23;20009;-79
2022/05/28 16:41:34;;;;;;;5.15;3.60;;;21.50;99.90;;;;;;6216208;23;20388;-80
2022/05/28 16:44:03;;;;;;;4.03;3.15;;;21.50;99.90;;;;;;6216493;23;20030;-80
2022/05/28 16:46:29;;;;;;;6.32;3.47;;;21.50;99.90;;;;;;6216330;23;20035;-80
2022/05/28 16:48:57;;;;;;;6.13;3.22;;;21.60;99.90;;;;;;6189447;23;20008;-80
2022/05/28 16:51:24;;;;;;;3.78;3.17;;;21.40;99.90;;;;;;6216173;23;20004;-80
2022/05/28 16:53:53;;;;;;;9.18;4.55;;;21.30;99.90;;;;;;6215629;23;20008;-79
2022/05/28 16:56:24;;;;;;;14.48;4.88;;;21.20;99.90;;;;;;6189312;23;20005;-79
2022/05/28 16:58:50;;;;;;;13.93;6.28;;;21.10;99.90;;;;;;6215714;23;20055;-78
2022/05/28 17:01:17;;;;;;;15.50;6.03;;;21.00;99.90;;;;;;6216604;23;20012;-79
2022/05/28 17:03:46;;;;;;;9.05;5.13;;;20.80;99.90;;;;;;6189346;23;20012;-79
2022/05/28 17:06:15;;;;;;;13.52;6.13;;;20.60;99.90;;;;;;6215203;23;20001;-79
2022/05/28 17:08:43;;;;;;;9.52;6.05;;;20.30;99.90;;;;;;6215221;23;20001;-79
2022/05/28 17:11:11;;;;;;;11.05;3.95;;;20.10;99.90;;;;;;6215687;23;20083;-79
2022/05/28 17:13:37;;;;;;;9.73;2.88;;;20.00;99.90;;;;;;6215094;23;20011;-79
2022/05/28 17:16:03;;;;;;;5.65;3.08;;;19.80;99.90;;;;;;6215434;23;20079;-79
2022/05/28 17:18:28;;;;;;;2.00;1.90;;;19.70;99.90;;;;;;6214777;23;20031;-79
2022/05/28 17:20:54;;;;;;;5.50;2.63;;;19.50;99.90;;;;;;6215796;23;20000;-80
2022/05/28 17:23:20;;;;;;;3.80;1.40;;;19.20;99.90;;;;;;6215522;23;20057;-80
2022/05/28 17:25:46;;;;;;;5.13;1.92;;;19.10;99.90;;;;;;6215697;23;20012;-80
2022/05/28 17:28:14;;;;;;;3.10;2.05;;;18.90;99.90;;;;;;6216185;23;20336;-80
2022/05/28 17:30:41;;;;;;;2.03;1.85;;;18.90;99.90;;;;;;6215951;23;20004;-80
2022/05/28 17:33:12;;;;;;;1.02;0.98;;;18.90;99.90;;;;;;6189164;23;20403;-80
2022/05/28 17:35:38;;;;;;;1.67;1.58;;;18.80;99.90;;;;;;6215451;23;20394;-79
2022/05/28 17:38:04;;;;;;;1.42;1.10;;;18.80;99.90;;;;;;6216020;23;20424;-80
2022/05/28 17:40:32;;;;;;;4.20;1.52;;;19.00;99.90;;;;;;6215220;23;20001;-80
2022/05/28 17:42:59;;;;;;;2.45;1.50;;;19.00;99.90;;;;;;6215479;23;19996;-79
2022/05/28 17:45:25;;;;;;;5.22;1.10;;;19.00;99.90;;;;;;6215158;23;20008;-79
2022/05/28 17:47:52;;;;;;;6.03;1.50;;;19.00;99.90;;;;;;6207936;23;20020;-75
2022/05/28 17:50:21;;;;;;;4.90;1.70;;;19.10;99.90;;;;;;6206707;23;20001;-75
2022/05/28 17:52:47;;;;;;;2.25;1.30;;;19.00;99.90;;;;;;6204234;23;20004;-76
2022/05/28 17:58:24;;;;;;;1.55;1.45;;;18.90;99.90;;;;;;6185972;23;20001;-77
2022/05/28 18:03:49;;;;;;;2.55;1.77;;;18.70;99.90;;;;;;6198333;23;20028;-77
2022/05/28 18:06:23;;;;;;;1.80;1.30;;;18.70;99.90;;;;;;6209502;23;20007;-77
2022/05/28 18:08:49;;;;;;;2.03;1.30;;;18.60;99.90;;;;;;6210313;23;20321;-78
2022/05/28 18:11:15;;;;;;;7.47;1.65;;;18.60;99.90;;;;;;6210527;23;20008;-77
2022/05/28 18:13:41;;;;;;;2.70;1.25;;;18.60;99.90;;;;;;6211051;23;20492;-78
2022/05/28 18:16:13;;;;;;;2.22;1.38;;;18.60;99.90;;;;;;6208125;23;20012;-77
2022/05/28 18:18:43;;;;;;;1.27;1.17;;;18.60;99.90;;;;;;6210864;23;19996;-78
2022/05/28 18:21:15;;;;;;;3.42;1.10;;;18.60;99.90;;;;;;6209123;23;20011;-77
2022/05/28 18:23:41;;;;;;;2.25;1.38;;;18.60;99.90;;;;;;6210989;23;19996;-77
2022/05/28 18:26:08;;;;;;;2.63;1.98;;;18.70;99.90;;;;;;6208642;23;20095;-77
2022/05/28 18:28:34;;;;;;;3.90;1.77;;;18.70;99.90;;;;;;6211434;23;20000;-78
2022/05/28 18:31:00;;;;;;;1.48;1.38;;;18.70;99.90;;;;;;6210378;23;20340;-78
2022/05/28 18:33:26;;;;;;;1.10;1.05;;;18.90;99.90;;;;;;6212000;23;20000;-79
2022/05/28 18:35:53;;;;;;;1.42;1.33;;;18.90;99.90;;;;;;6211332;23;20387;-79
2022/05/28 18:38:28;;;;;;;2.08;1.48;;;18.90;99.90;;;;;;6211775;23;19996;-78
2022/05/28 18:40:54;;;;;;;1.58;1.48;;;19.00;99.90;;;;;;6210135;23;20001;-79
2022/05/28 18:43:20;;;;;;;1.92;1.17;;;19.00;99.90;;;;;;6212035;23;20404;-78
2022/05/28 18:45:46;;;;;;;2.40;1.48;;;19.10;99.90;;;;;;6212684;23;20055;-78
2022/05/28 18:48:12;;;;;;;2.03;1.30;;;19.10;99.90;;;;;;6211983;23;20023;-78
2022/05/28 18:50:42;;;;;;;2.08;1.77;;;19.20;99.90;;;;;;6211992;23;20466;-79
2022/05/28 18:55:58;;;;;;;4.18;1.83;;;19.20;99.90;;;;;;6215028;23;20035;-78
2022/05/28 18:58:23;;;;;;;5.32;2.47;;;19.30;99.90;;;;;;6215121;23;20080;-79
2022/05/28 19:00:49;;;;;;;3.05;1.90;;;19.20;99.90;;;;;;6214687;23;20697;-79
2022/05/28 19:03:15;;;;;;;2.45;2.03;;;19.20;99.90;;;;;;6215110;23;20024;-78
2022/05/28 19:05:47;;;;;;;2.28;1.90;;;19.20;99.90;;;;;;6215566;23;20008;-79
2022/05/28 19:08:16;;;;;;;3.92;1.77;;;19.20;99.90;;;;;;6215115;23;20013;-78
2022/05/28 19:10:43;;;;;;;1.85;1.75;;;19.20;99.90;;;;;;6215002;23;20004;-79
2022/05/28 19:13:11;;;;;;;4.50;1.80;;;19.10;99.90;;;;;;6215264;23;20001;-78
2022/05/28 19:15:42;;;;;;;5.43;1.70;;;19.10;99.90;;;;;;6214640;23;20015;-78
2022/05/28 19:18:08;;;;;;;3.33;1.90;;;19.00;99.90;;;;;;6214688;23;20027;-78
2022/05/28 19:20:34;;;;;;;1.85;1.75;;;19.00;99.90;;;;;;6215353;23;19997;-78
2022/05/28 19:23:01;;;;;;;2.63;2.25;;;19.00;99.90;;;;;;6213866;23;20012;-78
2022/05/28 19:28:12;;;;;;;3.45;1.83;;;19.00;99.90;;;;;;6212735;23;20016;-79
2022/05/28 19:30:40;;;;;;;3.83;1.90;;;19.00;99.90;;;;;;6210030;23;20475;-78
2022/05/28 19:33:08;;;;;;;5.88;2.10;;;19.00;99.90;;;;;;6210238;23;20004;-79
2022/05/28 19:35:37;;;;;;;4.25;1.70;;;19.00;99.90;;;;;;6210643;23;20020;-79
2022/05/28 19:38:03;;;;;;;1.95;1.77;;;19.00;99.90;;;;;;6211513;23;19997;-78
2022/05/28 19:40:30;;;;;;;2.22;1.60;;;19.00;99.90;;;;;;6211777;23;20004;-78
2022/05/28 19:42:58;;;;;;;2.00;1.63;;;18.90;99.90;;;;;;6213782;23;20011;-78
2022/05/28 19:45:26;;;;;;;3.42;1.75;;;19.00;99.90;;;;;;6215004;23;20008;-78
2022/05/28 19:48:04;;;;;;;3.30;1.38;;;19.00;99.90;;;;;;6217076;23;20063;-78
2022/05/28 19:50:30;;;;;;;1.00;0.88;;;19.10;99.90;;;;;;6217051;23;20005;-78
2022/05/28 19:52:57;;;;;;;0.70;0.70;;;19.00;99.90;;;;;;6215383;23;20440;-76
2022/05/28 19:55:24;;;;;;;0.50;0.50;;;18.90;99.90;;;;;;6211746;23;20507;-75
2022/05/28 19:57:52;;;;;;;3.92;0.57;;;18.90;99.90;;;;;;6210447;23;20001;-75
2022/05/28 20:00:19;;;;;;;0.40;0.40;;;18.90;99.90;;;;;;6209555;23;20051;-76
2022/05/28 20:03:38;;;;;;;0.30;0.30;;;18.90;99.90;;;;;;6209896;23;20482;-75
2022/05/28 20:06:05;;;;;;;0.40;0.40;;;18.90;99.90;;;;;;6183499;23;20012;-75
2022/05/28 20:08:32;;;;;;;0.88;0.45;;;18.90;99.90;;;;;;6209761;23;20007;-75
2022/05/28 20:10:58;;;;;;;1.70;0.28;;;18.80;99.90;;;;;;6210927;23;20075;-75
2022/05/28 20:13:26;;;;;;;1.45;0.30;;;18.70;99.90;;;;;;6209426;23;20079;-75
2022/05/28 20:15:52;;;;;;;0.50;0.50;;;18.70;99.90;;;;;;6209077;23;20004;-75
2022/05/28 20:18:18;;;;;;;0.30;0.30;;;18.70;99.90;;;;;;6209028;23;19997;-75
2022/05/28 20:20:54;;;;;;;0.40;0.40;;;18.80;99.90;;;;;;6209828;23;20007;-78
2022/05/28 20:23:47;;;;;;;0.50;0.50;;;18.80;99.90;;;;;;6209736;23;20032;-75